Airfield :
LOGIN :

Register | Disclaimer

   EN    FR    IT 

 










Legend :    VFR   Marginal VFR   IFR   Intensive IFR   Very Intensive IFR
Visi :
Ceiling :
>= 8 km
>= 3000ft
5 to 8 km
1000 to 3000 ft
1500m to 5 km
500 to 1000 ft
800 to 1500m
200 to 500 ft
< 800m
< 200 ft
Symbols :   Thunderstorms  Fog  Heavy snow  Heavy precipitations  Wind > 20 kt
SIGMETs :     Misc.  Thunderstorms  Icing  Turbulence  Mountain Waves  Volcanic Ashes







- Airport Elevation : 83 ft
- IATA code : LHR
- Download approach charts


EGLL - London Heathrow

CURRENT METAR :
  • 220420Z AUTO VRB03KT 9999 NCD 09/02 Q1010 NOSIG

EXPIRED METARs :
  • 220350Z AUTO 03003KT 9999 NCD 10/02 Q1010 NOSIG
  • 220320Z AUTO 04003KT 9999 NCD 10/02 Q1010 NOSIG
  • 220250Z AUTO 04003KT 9999 NCD 10/02 Q1011 NOSIG
  • 220220Z AUTO 05002KT 9999 NCD 11/02 Q1011 NOSIG
  • 220150Z AUTO 07003KT 9999 NCD 10/02 Q1012 NOSIG

TAF TAF EGLL
Valid from the 22 at 00:00 until the 23 at 06:00 UTC


212256Z 2200/2306 08005KT CAVOK
PROB30 2201/2207 8000
BECMG 2213/2216 14010KT
BECMG 2220/2223 06003KT
PROB30 2300/2306 6000
No reported NOTAMs for that airfield.



MET'MAP, your aeronautical weather chart ! - Copyright ORBIFLY December 2007 - Disclaimer

ORBIFLY MET'MAP TEAM :

Programming & Development : Alexandra Zaïnal
Concept & Development : Baudouin d'Aumeries
Co-Development & Prog : Marc-Olivier Méhu
Technical & hardware support : Manuel Goepfert

Contact : metmap@orbifly.com




SOURCES & CREDITS :

   NOAA